Xekmatt — OR2473 — position and weather

sailwx.info

Track history (hours):
 
Tides and Currents Weather Stations Pressure Air Temp Water Temp Dewpoint Dewpoint Depression Visibility Wind Speed Wind Dir Waves Ship Positions

Xekmatt

Last reported at 2015-May-02 14:32 UTC. Time now 2015-May-05 06:13 UTC.
Position N 38°42' W 009°10'.

Length 14 m.

Type: Sailing vessel. MMSI: 205247310.

Date/timePositionNaut miles runAvg speedWind from/ knotsBaromVisibWave heightAir tempDewpointWater temp
2015-May-02 14:32N 38°42' W 009°10'1 1.4
2015-May-02 13:33N 38°42' W 009°12'0 0.2
2015-May-02 12:33N 38°42' W 009°12'1 1.0
2015-May-02 11:33N 38°41' W 009°14'1 1.3
2015-May-02 10:29N 38°42' W 009°12'2 0.1
2015-May-01 14:17N 38°42' W 009°10'3 3.9
2015-May-01 13:33N 38°41' W 009°14'1 1.3
2015-May-01 12:33N 38°42' W 009°12'0 0.3
2015-May-01 11:33N 38°41' W 009°12'0 0.3
2015-May-01 10:32N 38°42' W 009°12'  
2015-Apr-26 13:20N 38°42' W 009°10'3 4.4
2015-Apr-26 12:33N 38°42' W 009°15'6 5.6
2015-Apr-26 11:33N 38°37' W 009°18'9 8.5
2015-Apr-26 10:33N 38°29' W 009°15'6 0.2
2015-Apr-24 21:33N 38°24' W 009°10'4 4.1
2015-Apr-24 20:33N 38°28' W 009°14'6 5.9
2015-Apr-24 19:33N 38°33' W 009°15'7 6.8
2015-Apr-24 18:33N 38°40' W 009°19'3 2.4
2015-Apr-24 17:29N 38°42' W 009°17'6 5.8
2015-Apr-24 16:31N 38°42' W 009°09'  
Track history (hours):
 
Tides and Currents Weather Stations Pressure Air Temp Water Temp Dewpoint Dewpoint Depression Visibility Wind Speed Wind Dir Waves Ship Positions

Xekmatt

Last reported at 2015-May-02 14:32 UTC. Time now 2015-May-05 06:13 UTC.
Position N 38°42' W 009°10'.

Length 14 m.

Type: Sailing vessel. MMSI: 205247310.

Date/timePositionNaut miles runAvg speedWind from/ knotsBaromVisibWave heightAir tempDewpointWater temp
2015-May-02 14:32N 38°42' W 009°10'1 1.4
2015-May-02 13:33N 38°42' W 009°12'0 0.2
2015-May-02 12:33N 38°42' W 009°12'1 1.0
2015-May-02 11:33N 38°41' W 009°14'1 1.3
2015-May-02 10:29N 38°42' W 009°12'2 0.1
2015-May-01 14:17N 38°42' W 009°10'3 3.9
2015-May-01 13:33N 38°41' W 009°14'1 1.3
2015-May-01 12:33N 38°42' W 009°12'0 0.3
2015-May-01 11:33N 38°41' W 009°12'0 0.3
2015-May-01 10:32N 38°42' W 009°12'  
2015-Apr-26 13:20N 38°42' W 009°10'3 4.4
2015-Apr-26 12:33N 38°42' W 009°15'6 5.6
2015-Apr-26 11:33N 38°37' W 009°18'9 8.5
2015-Apr-26 10:33N 38°29' W 009°15'6 0.2
2015-Apr-24 21:33N 38°24' W 009°10'4 4.1
2015-Apr-24 20:33N 38°28' W 009°14'6 5.9
2015-Apr-24 19:33N 38°33' W 009°15'7 6.8
2015-Apr-24 18:33N 38°40' W 009°19'3 2.4
2015-Apr-24 17:29N 38°42' W 009°17'6 5.8
2015-Apr-24 16:31N 38°42' W 009°09'  

Dump ship's entire track history